createdAt,value
2022-10-20T00:02:30.268Z,12.40
2022-10-20T00:05:01.214Z,12.40
2022-10-20T00:07:35.113Z,12.40
2022-10-20T00:10:06.787Z,12.40
2022-10-20T00:12:37.926Z,12.30
2022-10-20T00:15:09.645Z,12.20
2022-10-20T00:17:40.558Z,12.30
2022-10-20T00:20:11.965Z,12.30
2022-10-20T00:22:42.923Z,12.30
2022-10-20T00:25:13.833Z,12.20
2022-10-20T00:27:44.723Z,12.20
2022-10-20T00:30:15.798Z,12.20
2022-10-20T00:32:48.029Z,12.20
2022-10-20T00:35:19.032Z,12.20
2022-10-20T00:37:49.924Z,12.10
2022-10-20T00:40:20.990Z,12.10
2022-10-20T00:42:52.274Z,12.00
2022-10-20T00:45:23.196Z,11.90
2022-10-20T00:48:01.157Z,11.90
2022-10-20T00:50:42.848Z,11.90
2022-10-20T00:53:14.606Z,11.90
2022-10-20T00:55:49.459Z,11.90
2022-10-20T00:58:20.486Z,11.90
2022-10-20T01:00:56.686Z,12.00
2022-10-20T01:03:50.374Z,11.90
2022-10-20T01:06:22.896Z,11.90
2022-10-20T01:08:55.047Z,11.80
2022-10-20T01:11:37.967Z,11.80
2022-10-20T01:14:36.906Z,11.80
2022-10-20T01:17:17.965Z,11.70
2022-10-20T01:20:18.378Z,11.80
2022-10-20T01:23:01.841Z,11.80
2022-10-20T01:25:51.235Z,11.80
2022-10-20T01:28:53.273Z,11.80
2022-10-20T01:31:45.120Z,11.80
2022-10-20T01:34:30.749Z,11.80
2022-10-20T01:37:34.442Z,11.80
2022-10-20T01:40:28.739Z,11.80
2022-10-20T01:43:04.545Z,11.80
2022-10-20T01:45:39.704Z,11.70
2022-10-20T01:48:13.065Z,11.80
2022-10-20T01:50:46.180Z,11.80
2022-10-20T01:53:17.338Z,11.70
2022-10-20T01:55:52.560Z,11.70
2022-10-20T01:58:29.350Z,11.70
2022-10-20T02:01:13.263Z,11.60
2022-10-20T02:03:58.352Z,11.60
2022-10-20T02:07:00.322Z,11.60
2022-10-20T02:09:39.065Z,11.50
2022-10-20T02:12:19.783Z,11.50
2022-10-20T02:14:51.059Z,11.50
2022-10-20T02:17:22.279Z,11.40
2022-10-20T02:19:54.091Z,11.40
2022-10-20T02:22:26.289Z,11.40
2022-10-20T02:24:57.200Z,11.40
2022-10-20T02:27:34.759Z,11.40
2022-10-20T02:30:13.056Z,11.40
2022-10-20T02:32:49.335Z,11.30
2022-10-20T02:35:29.624Z,11.40
2022-10-20T02:38:00.770Z,11.40
2022-10-20T02:40:31.831Z,11.30
2022-10-20T02:43:02.684Z,11.30
2022-10-20T02:45:33.566Z,11.30
2022-10-20T02:48:06.340Z,11.30
2022-10-20T02:50:39.025Z,11.20
2022-10-20T02:53:09.894Z,11.20
2022-10-20T02:55:42.872Z,11.20
2022-10-20T02:58:13.741Z,11.20
2022-10-20T03:00:44.620Z,11.20
2022-10-20T03:03:15.517Z,11.20
2022-10-20T03:05:47.621Z,11.30
2022-10-20T03:08:18.599Z,11.30
2022-10-20T03:10:49.509Z,11.40
2022-10-20T03:13:20.440Z,11.40
2022-10-20T03:15:51.370Z,11.40
2022-10-20T03:18:22.249Z,11.30
2022-10-20T03:20:54.539Z,11.30
2022-10-20T03:23:25.605Z,11.40
2022-10-20T03:26:08.562Z,11.40
2022-10-20T03:28:40.383Z,11.30
2022-10-20T03:31:11.413Z,11.30
2022-10-20T03:33:42.482Z,11.30
2022-10-20T03:36:13.450Z,11.20
2022-10-20T03:38:44.335Z,11.20
2022-10-20T03:41:15.262Z,11.10
2022-10-20T03:43:46.131Z,11.10
2022-10-20T03:46:17.080Z,11.10
2022-10-20T03:48:47.993Z,11.10
2022-10-20T03:51:19.078Z,11.10
2022-10-20T03:53:49.985Z,11.10
2022-10-20T03:56:22.037Z,11.10
2022-10-20T03:58:53.037Z,11.10
2022-10-20T04:01:31.288Z,11.20
2022-10-20T04:04:02.251Z,11.20
2022-10-20T04:06:33.116Z,11.40
2022-10-20T04:09:05.105Z,11.40
2022-10-20T04:11:36.025Z,11.40
2022-10-20T04:14:06.981Z,11.50
2022-10-20T04:16:37.874Z,11.60
2022-10-20T04:19:08.807Z,11.60
2022-10-20T04:21:39.700Z,11.70
2022-10-20T04:24:10.575Z,11.70
2022-10-20T04:26:41.486Z,11.70
2022-10-20T04:29:12.420Z,11.80
2022-10-20T04:31:48.172Z,11.80
2022-10-20T04:34:20.383Z,11.80
2022-10-20T04:36:51.248Z,11.80
2022-10-20T04:39:22.317Z,11.80
2022-10-20T04:41:53.189Z,11.90
2022-10-20T04:44:24.210Z,11.90
2022-10-20T04:46:55.449Z,11.90
2022-10-20T04:49:26.543Z,11.80
2022-10-20T04:52:00.979Z,11.80
2022-10-20T04:54:32.274Z,11.80
2022-10-20T04:57:04.211Z,11.80
2022-10-20T04:59:35.097Z,11.80
2022-10-20T05:02:06.078Z,11.80
2022-10-20T05:04:44.680Z,11.80
2022-10-20T05:07:15.816Z,11.90
2022-10-20T05:09:48.193Z,12.00
2022-10-20T05:12:19.070Z,12.00
2022-10-20T05:14:50.017Z,12.00
2022-10-20T05:17:20.901Z,12.00
2022-10-20T05:19:51.802Z,12.00
2022-10-20T05:22:22.982Z,12.00
2022-10-20T05:24:53.886Z,12.00
2022-10-20T05:27:26.260Z,12.00
2022-10-20T05:29:57.290Z,12.00
2022-10-20T05:32:28.228Z,12.00
2022-10-20T05:34:59.135Z,12.00
2022-10-20T05:37:30.059Z,12.00
2022-10-20T05:40:03.555Z,12.00
2022-10-20T05:42:34.946Z,12.00
2022-10-20T05:45:07.777Z,12.00
2022-10-20T05:47:38.637Z,12.00
2022-10-20T05:50:10.382Z,12.00
2022-10-20T05:52:41.271Z,12.00
2022-10-20T05:55:12.237Z,12.20
2022-10-20T05:57:43.115Z,12.10
2022-10-20T06:00:15.967Z,12.10
2022-10-20T06:02:46.845Z,12.00
2022-10-20T06:05:17.791Z,12.00
2022-10-20T06:07:48.716Z,11.90
2022-10-20T06:10:19.679Z,12.00
2022-10-20T06:12:50.644Z,12.00
2022-10-20T06:15:21.568Z,12.00
2022-10-20T06:17:52.501Z,12.10
2022-10-20T06:20:23.409Z,12.10
2022-10-20T06:22:54.291Z,12.10
2022-10-20T06:25:25.248Z,12.10
2022-10-20T06:27:56.165Z,12.10
2022-10-20T06:30:27.453Z,12.20
2022-10-20T06:32:58.305Z,12.20
2022-10-20T06:35:31.271Z,12.20
2022-10-20T06:38:02.120Z,12.30
2022-10-20T06:40:34.231Z,12.30
2022-10-20T06:43:05.458Z,12.30
2022-10-20T06:45:36.850Z,12.30
2022-10-20T06:48:07.765Z,12.30
2022-10-20T06:50:38.677Z,12.30
2022-10-20T06:53:09.632Z,12.50
2022-10-20T06:55:40.810Z,12.60
2022-10-20T06:58:11.669Z,12.70
2022-10-20T07:00:42.557Z,12.70
2022-10-20T07:03:13.433Z,12.60
2022-10-20T07:05:44.306Z,12.60
2022-10-20T07:08:15.358Z,12.60
2022-10-20T07:10:46.249Z,12.70
2022-10-20T07:13:17.111Z,12.70
2022-10-20T07:15:48.190Z,12.70
2022-10-20T07:18:19.089Z,12.70
2022-10-20T07:20:51.427Z,12.80
2022-10-20T07:23:23.028Z,12.80
2022-10-20T07:26:01.424Z,12.90
2022-10-20T07:28:33.785Z,12.90
2022-10-20T07:31:08.322Z,13.00
2022-10-20T07:33:39.537Z,13.10
2022-10-20T07:36:18.856Z,13.10
2022-10-20T07:38:51.944Z,13.20
2022-10-20T07:41:23.698Z,13.40
2022-10-20T07:43:56.300Z,13.50
2022-10-20T07:46:27.272Z,13.60
2022-10-20T07:49:11.404Z,13.70
2022-10-20T07:51:49.010Z,13.70
2022-10-20T07:54:19.968Z,13.80
2022-10-20T07:56:50.858Z,13.90
2022-10-20T07:59:21.829Z,13.90
2022-10-20T08:01:56.336Z,13.90
2022-10-20T08:04:31.692Z,14.10
2022-10-20T08:07:02.883Z,14.10
2022-10-20T08:09:34.013Z,14.10
2022-10-20T08:12:05.734Z,14.10
2022-10-20T08:14:37.921Z,14.10
2022-10-20T08:17:08.846Z,14.20
2022-10-20T08:22:24.605Z,14.30
2022-10-20T08:24:55.990Z,14.30
2022-10-20T08:27:26.885Z,14.50
2022-10-20T08:30:06.180Z,14.50
2022-10-20T08:32:52.867Z,14.60
2022-10-20T08:35:24.447Z,14.70
2022-10-20T08:37:55.384Z,14.70
2022-10-20T08:40:29.944Z,14.70
2022-10-20T08:43:00.980Z,14.80
2022-10-20T08:45:37.347Z,15.00
2022-10-20T08:48:18.672Z,15.10
2022-10-20T08:50:51.867Z,15.20
2022-10-20T08:53:25.192Z,15.30
2022-10-20T08:55:56.538Z,15.40
2022-10-20T08:58:27.421Z,15.40
2022-10-20T09:00:59.963Z,15.50
2022-10-20T09:03:33.452Z,15.50
2022-10-20T09:06:14.681Z,15.60
2022-10-20T09:08:46.942Z,15.70
2022-10-20T09:11:23.541Z,15.80
2022-10-20T09:13:54.767Z,15.80
2022-10-20T09:16:58.857Z,15.90
2022-10-20T09:19:29.871Z,15.90
2022-10-20T09:22:06.102Z,16.00
2022-10-20T09:24:38.087Z,16.10
2022-10-20T09:27:34.836Z,16.20
2022-10-20T09:30:19.710Z,16.20
2022-10-20T09:32:50.985Z,16.20
2022-10-20T09:35:32.308Z,16.20
2022-10-20T09:38:27.708Z,16.30
2022-10-20T09:41:14.185Z,16.40
2022-10-20T09:44:02.752Z,16.50
2022-10-20T09:46:44.122Z,16.40
2022-10-20T09:49:34.940Z,16.40
2022-10-20T09:52:30.588Z,16.50
2022-10-20T09:55:08.202Z,16.50
2022-10-20T09:57:39.152Z,16.40
2022-10-20T10:00:43.099Z,16.40
2022-10-20T10:03:21.616Z,16.60
2022-10-20T10:05:57.931Z,16.60
2022-10-20T10:08:42.606Z,16.60
2022-10-20T10:11:19.869Z,16.60
2022-10-20T10:13:52.866Z,16.70
2022-10-20T10:16:24.651Z,16.80
2022-10-20T10:19:04.025Z,16.90
2022-10-20T10:21:55.026Z,16.80
2022-10-20T10:24:37.001Z,16.80
2022-10-20T10:27:35.595Z,16.90
2022-10-20T10:30:27.787Z,16.90
2022-10-20T10:32:58.866Z,16.90
2022-10-20T10:35:41.360Z,17.00
2022-10-20T10:38:14.370Z,17.00
2022-10-20T10:41:29.492Z,17.00
2022-10-20T10:44:45.471Z,17.20
2022-10-20T10:47:40.286Z,17.20
2022-10-20T10:50:31.813Z,17.20
2022-10-20T10:53:48.444Z,17.40
2022-10-20T10:56:31.256Z,17.40
2022-10-20T10:59:29.261Z,17.40
2022-10-20T11:02:49.389Z,17.40
2022-10-20T11:05:41.384Z,17.20
2022-10-20T11:08:27.747Z,17.30
2022-10-20T11:11:18.880Z,17.30
2022-10-20T11:13:55.109Z,17.40
2022-10-20T11:16:58.606Z,17.30
2022-10-20T11:20:21.973Z,17.30
2022-10-20T11:23:38.822Z,17.40
2022-10-20T11:26:36.649Z,17.40
2022-10-20T11:29:20.778Z,17.40
2022-10-20T11:32:14.508Z,17.50
2022-10-20T11:35:32.225Z,17.60
2022-10-20T11:38:36.308Z,17.60
2022-10-20T11:41:13.238Z,17.70
2022-10-20T11:44:10.510Z,17.80
2022-10-20T11:46:51.990Z,17.80
2022-10-20T11:49:23.424Z,17.80
2022-10-20T11:52:45.332Z,17.70
2022-10-20T11:55:36.147Z,17.70
2022-10-20T11:58:46.818Z,17.60
2022-10-20T12:01:29.527Z,17.70
2022-10-20T12:04:41.003Z,17.80
2022-10-20T12:07:26.620Z,17.90
2022-10-20T12:10:36.229Z,17.90
2022-10-20T12:13:51.567Z,17.90
2022-10-20T12:16:53.347Z,17.70
2022-10-20T12:19:27.604Z,17.70
2022-10-20T12:22:06.270Z,17.80
2022-10-20T12:25:04.289Z,17.80
2022-10-20T12:27:35.182Z,17.90
2022-10-20T12:30:18.078Z,17.90
2022-10-20T12:33:39.165Z,17.90
2022-10-20T12:36:18.236Z,17.70
2022-10-20T12:39:07.823Z,17.80
2022-10-20T12:42:01.577Z,17.90
2022-10-20T12:44:43.436Z,17.90
2022-10-20T12:47:32.681Z,18.00
2022-10-20T12:50:23.596Z,17.90
2022-10-20T12:52:54.866Z,18.00
2022-10-20T12:55:40.983Z,18.00
2022-10-20T12:58:19.127Z,17.90
2022-10-20T13:00:50.011Z,18.00
2022-10-20T13:03:48.085Z,18.00
2022-10-20T13:06:27.629Z,18.00
2022-10-20T13:09:22.349Z,17.90
2022-10-20T13:12:00.172Z,17.90
2022-10-20T13:14:42.361Z,17.80
2022-10-20T13:17:26.534Z,17.70
2022-10-20T13:20:19.742Z,17.70
2022-10-20T13:22:54.191Z,17.60
2022-10-20T13:25:52.528Z,17.70
2022-10-20T13:28:29.908Z,17.60
2022-10-20T13:31:32.508Z,17.60
2022-10-20T13:34:43.636Z,17.50
2022-10-20T13:37:50.879Z,17.40
2022-10-20T13:40:49.731Z,17.40
2022-10-20T13:43:46.620Z,17.40
2022-10-20T13:46:29.589Z,17.40
2022-10-20T13:49:40.499Z,17.40
2022-10-20T13:52:16.523Z,17.40
2022-10-20T13:54:49.830Z,17.50
2022-10-20T13:57:35.618Z,17.50
2022-10-20T14:00:24.046Z,17.50
2022-10-20T14:03:06.208Z,17.50
2022-10-20T14:05:39.399Z,17.50
2022-10-20T14:08:12.347Z,17.50
2022-10-20T14:10:55.189Z,17.40
2022-10-20T14:13:30.996Z,17.50
2022-10-20T14:16:06.191Z,17.50
2022-10-20T14:18:39.798Z,17.60
2022-10-20T14:21:19.443Z,17.60
2022-10-20T14:23:51.015Z,17.50
2022-10-20T14:26:24.382Z,17.50
2022-10-20T14:28:55.348Z,17.50
2022-10-20T14:31:26.481Z,17.50
2022-10-20T14:33:57.545Z,17.60
2022-10-20T14:36:30.456Z,17.60
2022-10-20T14:39:01.887Z,17.60
2022-10-20T14:41:36.326Z,17.50
2022-10-20T14:44:15.524Z,17.50
2022-10-20T14:46:57.366Z,17.40
2022-10-20T14:49:38.242Z,17.50
2022-10-20T14:52:37.191Z,17.40
2022-10-20T14:55:35.388Z,17.40
2022-10-20T14:58:39.672Z,17.40
2022-10-20T15:01:17.399Z,17.40
2022-10-20T15:04:12.654Z,17.30
2022-10-20T15:06:44.923Z,17.30
2022-10-20T15:09:27.553Z,17.40
2022-10-20T15:11:58.763Z,17.30
2022-10-20T15:14:29.704Z,17.30
2022-10-20T15:17:01.071Z,17.30
2022-10-20T15:19:36.725Z,17.20
2022-10-20T15:22:07.755Z,17.20
2022-10-20T15:24:39.582Z,17.20
2022-10-20T15:27:16.455Z,17.20
2022-10-20T15:29:51.966Z,17.10
2022-10-20T15:32:22.878Z,17.10
2022-10-20T15:34:53.745Z,17.20
2022-10-20T15:37:24.698Z,17.20
2022-10-20T15:39:55.822Z,17.20
2022-10-20T15:42:26.790Z,17.10
2022-10-20T15:44:57.655Z,17.10
2022-10-20T15:47:28.596Z,17.10
2022-10-20T15:49:59.519Z,17.00
2022-10-20T15:52:30.388Z,17.00
2022-10-20T15:55:01.235Z,17.00
2022-10-20T15:57:32.143Z,16.90
2022-10-20T16:00:03.392Z,17.00
2022-10-20T16:02:34.420Z,16.90
2022-10-20T16:05:05.827Z,16.90
2022-10-20T16:07:37.071Z,16.90
2022-10-20T16:10:09.932Z,17.00
2022-10-20T16:12:41.503Z,16.90
2022-10-20T16:15:12.403Z,16.90
2022-10-20T16:17:43.526Z,16.90
2022-10-20T16:20:15.201Z,16.80
2022-10-20T16:22:46.230Z,16.80
2022-10-20T16:25:17.210Z,16.80
2022-10-20T16:27:48.147Z,16.90
2022-10-20T16:30:19.335Z,17.00
2022-10-20T16:32:50.319Z,16.90
2022-10-20T16:35:21.477Z,16.80
2022-10-20T16:37:52.365Z,16.70
2022-10-20T16:40:23.551Z,16.60
2022-10-20T16:42:54.440Z,16.60
2022-10-20T16:45:25.304Z,16.60
2022-10-20T16:47:56.427Z,16.50
2022-10-20T16:50:27.355Z,16.60
2022-10-20T16:52:58.259Z,16.50
2022-10-20T16:55:29.128Z,16.50
2022-10-20T16:58:00.195Z,16.50
2022-10-20T17:00:31.078Z,16.40
2022-10-20T17:03:01.957Z,16.50
2022-10-20T17:05:32.826Z,16.50
2022-10-20T17:08:03.930Z,16.40
2022-10-20T17:10:34.887Z,16.30
2022-10-20T17:13:05.781Z,16.30
2022-10-20T17:15:36.670Z,16.30
2022-10-20T17:18:07.541Z,16.20
2022-10-20T17:20:38.406Z,16.30
2022-10-20T17:23:09.459Z,16.30
2022-10-20T17:25:40.360Z,16.30
2022-10-20T17:28:11.278Z,16.50
2022-10-20T17:30:47.026Z,16.50
2022-10-20T17:33:17.941Z,16.40
2022-10-20T17:35:49.103Z,16.40
2022-10-20T17:38:20.129Z,16.30
2022-10-20T17:40:51.344Z,16.40
2022-10-20T17:43:22.791Z,16.50
2022-10-20T17:46:07.440Z,16.40
2022-10-20T17:48:38.901Z,16.40
2022-10-20T17:51:20.039Z,16.40
2022-10-20T17:53:52.871Z,16.30
2022-10-20T17:56:34.345Z,16.50
2022-10-20T17:59:07.460Z,16.50
2022-10-20T18:01:40.671Z,16.50
2022-10-20T18:04:17.547Z,16.50
2022-10-20T18:06:48.546Z,16.50
2022-10-20T18:09:19.518Z,16.40
2022-10-20T18:11:51.673Z,16.40
2022-10-20T18:14:22.640Z,16.30
2022-10-20T18:16:53.573Z,16.30
2022-10-20T18:19:24.519Z,16.30
2022-10-20T18:21:55.470Z,16.20
2022-10-20T18:24:26.376Z,16.20
2022-10-20T18:26:57.478Z,16.20
2022-10-20T18:29:28.387Z,16.20
2022-10-20T18:31:59.326Z,16.20
2022-10-20T18:34:30.177Z,16.20
2022-10-20T18:37:03.587Z,16.20
2022-10-20T18:39:34.694Z,16.20
2022-10-20T18:42:05.598Z,16.20
2022-10-20T18:44:36.515Z,16.10
2022-10-20T18:47:07.535Z,16.10
2022-10-20T18:49:38.447Z,16.10
2022-10-20T18:52:09.416Z,16.00
2022-10-20T18:54:40.453Z,16.00
2022-10-20T18:57:11.343Z,16.00
2022-10-20T18:59:42.221Z,16.00
2022-10-20T19:02:13.143Z,16.00
2022-10-20T19:04:44.031Z,16.10
2022-10-20T19:07:15.211Z,16.00
2022-10-20T19:09:46.255Z,16.00
2022-10-20T19:12:17.733Z,16.00
2022-10-20T19:14:51.538Z,15.90
2022-10-20T19:17:22.561Z,15.90
2022-10-20T19:19:54.413Z,15.90
2022-10-20T19:22:28.443Z,15.90
2022-10-20T19:25:00.623Z,15.80
2022-10-20T19:27:32.697Z,15.80
2022-10-20T19:30:04.191Z,15.80
2022-10-20T19:32:37.185Z,15.80
2022-10-20T19:35:11.209Z,15.80
2022-10-20T19:37:42.152Z,15.80
2022-10-20T19:40:13.139Z,15.90
2022-10-20T19:42:44.044Z,15.90
2022-10-20T19:45:15.059Z,16.00
2022-10-20T19:47:45.998Z,16.10
2022-10-20T19:50:17.208Z,16.10
2022-10-20T19:52:48.171Z,16.10
2022-10-20T19:55:19.187Z,16.00
2022-10-20T19:57:59.591Z,16.00
2022-10-20T20:00:30.653Z,16.00
2022-10-20T20:03:01.606Z,16.10
2022-10-20T20:05:32.621Z,16.10
2022-10-20T20:08:03.801Z,16.00
2022-10-20T20:10:35.836Z,16.00
2022-10-20T20:13:07.260Z,16.00
2022-10-20T20:15:38.239Z,15.90
2022-10-20T20:18:10.984Z,15.90
2022-10-20T20:20:43.924Z,15.90
2022-10-20T20:23:16.117Z,16.00
2022-10-20T20:25:47.027Z,16.10
2022-10-20T20:28:17.939Z,16.00
2022-10-20T20:31:11.565Z,16.10
2022-10-20T20:33:42.501Z,16.10
2022-10-20T20:36:13.742Z,16.20
2022-10-20T20:38:45.117Z,16.10
2022-10-20T20:41:18.630Z,16.00
2022-10-20T20:43:49.590Z,15.90
2022-10-20T20:46:23.328Z,15.80
2022-10-20T20:48:54.669Z,15.80
2022-10-20T20:51:26.970Z,15.80
2022-10-20T20:53:57.913Z,15.90
2022-10-20T20:56:29.043Z,16.00
2022-10-20T20:59:00.158Z,15.90
2022-10-20T21:01:32.160Z,15.90
2022-10-20T21:04:06.116Z,15.90
2022-10-20T21:07:00.829Z,15.90
2022-10-20T21:09:30.735Z,15.90
2022-10-20T21:12:04.069Z,15.90
2022-10-20T21:14:35.017Z,15.90
2022-10-20T21:17:05.921Z,16.00
2022-10-20T21:19:37.007Z,16.10
2022-10-20T21:22:07.950Z,16.10
2022-10-20T21:24:38.842Z,16.00
2022-10-20T21:27:09.780Z,16.10
2022-10-20T21:29:45.485Z,16.10
2022-10-20T21:32:18.496Z,16.00
2022-10-20T21:34:49.393Z,15.90
2022-10-20T21:37:20.916Z,15.90
2022-10-20T21:39:51.811Z,15.90
2022-10-20T21:42:22.812Z,15.70
2022-10-20T21:44:53.673Z,15.60
2022-10-20T21:47:24.553Z,15.50
2022-10-20T21:49:55.439Z,15.40
2022-10-20T21:52:26.344Z,15.40
2022-10-20T21:54:57.197Z,15.30
2022-10-20T21:57:28.117Z,15.30
2022-10-20T21:59:59.007Z,15.20
2022-10-20T22:02:29.910Z,15.20
2022-10-20T22:05:01.118Z,15.30
2022-10-20T22:07:32.039Z,15.30
2022-10-20T22:10:03.029Z,15.20
2022-10-20T22:12:33.969Z,15.20
2022-10-20T22:15:05.352Z,15.20
2022-10-20T22:17:36.493Z,15.10
2022-10-20T22:20:08.922Z,15.10
2022-10-20T22:22:40.025Z,15.10
2022-10-20T22:25:11.177Z,15.20
2022-10-20T22:27:42.702Z,15.20
2022-10-20T22:30:13.922Z,15.30
2022-10-20T22:32:44.821Z,15.40
2022-10-20T22:35:15.829Z,15.50
2022-10-20T22:37:46.761Z,15.40
2022-10-20T22:40:17.644Z,15.40
2022-10-20T22:42:48.986Z,15.40
2022-10-20T22:45:19.963Z,15.30
2022-10-20T22:47:50.899Z,15.30
2022-10-20T22:50:21.764Z,15.20
2022-10-20T22:52:52.706Z,15.20
2022-10-20T22:55:23.573Z,15.10
2022-10-20T22:57:54.560Z,15.20
2022-10-20T23:00:25.606Z,15.10
2022-10-20T23:02:57.617Z,15.10
2022-10-20T23:05:28.493Z,15.00
2022-10-20T23:07:59.631Z,15.00
2022-10-20T23:10:31.280Z,15.00
2022-10-20T23:13:02.178Z,14.90
2022-10-20T23:15:33.099Z,14.80
2022-10-20T23:18:04.021Z,14.80
2022-10-20T23:20:35.179Z,14.70
2022-10-20T23:23:06.105Z,14.70
2022-10-20T23:25:43.686Z,14.70
2022-10-20T23:28:14.555Z,14.60
2022-10-20T23:30:46.081Z,14.60
2022-10-20T23:33:17.026Z,14.50
2022-10-20T23:35:48.196Z,14.50
2022-10-20T23:38:19.063Z,14.50
2022-10-20T23:40:49.962Z,14.40
2022-10-20T23:43:20.816Z,14.50
2022-10-20T23:45:51.711Z,14.40
2022-10-20T23:48:22.591Z,14.40
2022-10-20T23:50:53.489Z,14.30
2022-10-20T23:53:24.927Z,14.30
2022-10-20T23:55:55.841Z,14.30
2022-10-20T23:58:27.106Z,14.30
